Time;durP1;ratioP1;P1;durP2;ratioP2;P2;SDS_P1;SDS_P2;PMS_P1;PMS_P2;Temp;Humidity;BMP_temperature;BMP_pressure;BME280_temperature;BME280_humidity;BME280_pressure;Samples;Min_cycle;Max_cycle;Signal;HPM_P1;HPM_P2
2023/03/11 00:02:18;;;;;;;8.48;2.20;;;;;;;2.19;100.00;100557.03;6293324;22;20019;-85
2023/03/11 00:04:43;;;;;;;10.13;2.30;;;;;;;2.03;100.00;100550.56;6292369;22;20021;-85
2023/03/11 00:07:10;;;;;;;6.63;2.47;;;;;;;2.00;100.00;100559.41;6290104;22;20054;-85
2023/03/11 00:09:36;;;;;;;10.65;3.53;;;;;;;1.98;100.00;100555.97;6134685;22;20098;-86
2023/03/11 00:12:02;;;;;;;8.70;3.40;;;;;;;1.68;100.00;100570.09;6134630;22;20073;-85
2023/03/11 00:14:28;;;;;;;10.15;2.95;;;;;;;1.73;100.00;100571.69;6291742;22;20030;-86
2023/03/11 00:16:53;;;;;;;8.00;2.50;;;;;;;1.68;100.00;100573.59;6159600;22;20026;-85
2023/03/11 00:19:19;;;;;;;6.13;2.70;;;;;;;1.49;100.00;100568.03;6290920;22;20015;-85
2023/03/11 00:21:44;;;;;;;9.43;2.88;;;;;;;1.45;100.00;100565.53;6291406;22;20014;-85
2023/03/11 00:24:10;;;;;;;10.85;4.32;;;;;;;1.38;100.00;100574.53;6291980;22;20026;-85
2023/03/11 00:26:36;;;;;;;5.55;2.30;;;;;;;1.48;100.00;100582.09;6292333;22;20061;-86
2023/03/11 00:29:01;;;;;;;15.35;3.22;;;;;;;1.35;100.00;100587.75;6137417;22;20525;-86
2023/03/11 00:31:27;;;;;;;9.45;3.00;;;;;;;1.37;100.00;100586.81;6293484;22;20011;-86
2023/03/11 00:33:53;;;;;;;11.40;2.80;;;;;;;1.32;100.00;100593.97;6161229;22;20230;-85
2023/03/11 00:36:23;;;;;;;9.88;2.78;;;;;;;1.40;100.00;100599.81;6161124;22;20021;-86
2023/03/11 00:38:49;;;;;;;15.00;3.90;;;;;;;1.34;100.00;100599.16;6293743;22;20015;-86
2023/03/11 00:41:15;;;;;;;13.10;3.50;;;;;;;1.29;100.00;100599.28;6294227;22;20054;-86
2023/03/11 00:43:40;;;;;;;10.93;3.33;;;;;;;1.45;100.00;100599.69;6137437;22;20031;-86
2023/03/11 00:46:06;;;;;;;8.00;3.30;;;;;;;1.40;100.00;100614.72;6292795;22;20460;-86
2023/03/11 00:48:31;;;;;;;12.25;4.45;;;;;;;1.32;100.00;100611.50;6161194;22;20015;-86
2023/03/11 00:50:57;;;;;;;15.52;3.83;;;;;;;1.33;100.00;100621.94;6136733;22;20030;-87
2023/03/11 00:53:22;;;;;;;13.02;3.40;;;;;;;1.33;100.00;100607.94;6162491;22;20023;-87
2023/03/11 00:55:48;;;;;;;11.77;3.30;;;;;;;1.39;100.00;100611.25;6137462;22;20099;-86
2023/03/11 00:58:14;;;;;;;12.10;3.70;;;;;;;1.33;100.00;100618.44;6266555;22;20023;-86
2023/03/11 01:00:44;;;;;;;9.63;3.53;;;;;;;1.35;100.00;100614.00;6139033;22;20015;-85
2023/03/11 01:03:10;;;;;;;14.57;4.60;;;;;;;1.06;100.00;100614.88;6162194;22;20023;-86
2023/03/11 01:05:35;;;;;;;13.93;3.33;;;;;;;1.02;100.00;100616.69;6163077;22;20576;-85
2023/03/11 01:08:02;;;;;;;18.73;3.38;;;;;;;0.96;100.00;100622.97;6162846;22;20026;-87
2023/03/11 01:10:29;;;;;;;16.63;5.05;;;;;;;0.97;100.00;100624.69;6162452;22;20019;-86
2023/03/11 01:12:55;;;;;;;17.98;3.90;;;;;;;0.98;100.00;100622.94;6164286;22;20019;-86
2023/03/11 01:15:25;;;;;;;17.92;3.42;;;;;;;0.88;100.00;100621.47;6163270;22;20315;-86
2023/03/11 01:17:51;;;;;;;13.02;3.33;;;;;;;0.99;100.00;100628.13;6164221;22;20042;-86
2023/03/11 01:20:17;;;;;;;16.88;2.90;;;;;;;1.04;100.00;100623.63;6164657;22;20890;-86
2023/03/11 01:22:43;;;;;;;18.58;3.00;;;;;;;1.10;100.00;100626.97;6165322;22;20019;-86
2023/03/11 01:25:14;;;;;;;16.40;3.30;;;;;;;1.08;100.00;100632.28;6163635;22;20050;-86
2023/03/11 01:27:40;;;;;;;10.40;2.80;;;;;;;1.11;100.00;100633.97;6138791;22;20142;-86
2023/03/11 01:30:06;;;;;;;13.15;3.15;;;;;;;1.02;100.00;100640.31;6294996;22;20434;-86
2023/03/11 01:32:32;;;;;;;12.50;2.95;;;;;;;1.02;100.00;100641.19;6163857;22;20019;-86
2023/03/11 01:34:57;;;;;;;9.85;2.85;;;;;;;1.07;100.00;100643.69;6164276;22;20022;-86
2023/03/11 01:37:24;;;;;;;12.48;2.45;;;;;;;0.89;100.00;100645.03;6164743;22;20015;-86
2023/03/11 01:39:50;;;;;;;7.70;2.65;;;;;;;1.02;100.00;100645.59;6163878;22;20015;-86
2023/03/11 01:42:15;;;;;;;7.25;2.75;;;;;;;1.00;100.00;100653.50;6163881;22;20518;-85
2023/03/11 01:44:41;;;;;;;6.72;2.40;;;;;;;0.91;100.00;100652.88;6163010;22;20019;-85
2023/03/11 01:47:09;;;;;;;7.25;2.40;;;;;;;0.97;100.00;100655.34;6138267;22;20606;-85
2023/03/11 01:49:40;;;;;;;12.02;3.08;;;;;;;0.84;100.00;100657.41;6162654;22;20015;-86
2023/03/11 01:52:07;;;;;;;7.22;2.78;;;;;;;1.00;100.00;100656.13;6161767;22;20042;-86
2023/03/11 01:54:39;;;;;;;11.27;2.88;;;;;;;0.85;100.00;100653.03;6137040;22;20018;-85
2023/03/11 01:57:08;;;;;;;8.18;2.53;;;;;;;0.86;100.00;100658.25;6136501;22;20065;-85
2023/03/11 01:59:43;;;;;;;16.02;2.60;;;;;;;0.99;100.00;100651.75;6159836;22;20038;-85
2023/03/11 02:02:11;;;;;;;10.20;2.95;;;;;;;0.80;100.00;100654.91;6158737;22;20016;-85
2023/03/11 02:04:39;;;;;;;19.65;2.40;;;;;;;0.95;100.00;100655.38;6135528;22;20545;-85
2023/03/11 02:07:08;;;;;;;9.73;2.78;;;;;;;0.79;100.00;100659.31;6159334;22;20019;-85
2023/03/11 02:09:34;;;;;;;8.32;2.13;;;;;;;0.81;100.00;100661.91;6138075;22;20661;-86
2023/03/11 02:12:00;;;;;;;21.27;2.83;;;;;;;0.75;100.00;100665.53;6294330;22;20011;-85
2023/03/11 02:14:29;;;;;;;5.43;2.28;;;;;;;0.77;100.00;100661.97;6162962;22;20022;-86
2023/03/11 02:16:57;;;;;;;10.13;3.05;;;;;;;0.70;100.00;100667.41;6163657;22;20018;-86
2023/03/11 02:19:29;;;;;;;9.07;2.85;;;;;;;0.76;100.00;100669.91;6164617;22;20564;-86
2023/03/11 02:21:56;;;;;;;15.27;5.45;;;;;;;0.62;100.00;100672.00;6163174;22;20023;-86
2023/03/11 02:24:32;;;;;;;6.60;2.40;;;;;;;0.57;100.00;100676.50;6164059;22;20015;-86
2023/03/11 02:27:01;;;;;;;10.32;2.80;;;;;;;0.48;100.00;100675.84;6140149;22;20026;-85
2023/03/11 02:29:29;;;;;;;11.90;2.70;;;;;;;0.59;100.00;100675.56;6163663;22;20029;-85
2023/03/11 02:31:58;;;;;;;13.82;2.58;;;;;;;0.39;100.00;100693.56;6140438;22;20015;-85
2023/03/11 02:34:27;;;;;;;10.82;2.60;;;;;;;0.48;100.00;100677.59;6139578;22;20554;-85
2023/03/11 02:36:53;;;;;;;10.15;2.42;;;;;;;0.57;100.00;100687.00;6268363;22;20034;-86
2023/03/11 02:39:31;;;;;;;13.80;2.50;;;;;;;0.59;100.00;100672.06;6139419;22;20019;-86
2023/03/11 02:41:59;;;;;;;6.88;2.58;;;;;;;0.54;100.00;100687.06;6138788;22;20065;-84
2023/03/11 02:44:25;;;;;;;8.73;2.08;;;;;;;0.33;100.00;100696.31;6295428;22;20094;-86
2023/03/11 02:46:52;;;;;;;8.40;2.92;;;;;;;0.56;100.00;100691.41;6138758;22;20015;-86
2023/03/11 02:49:19;;;;;;;15.88;4.00;;;;;;;0.63;100.00;100697.34;6163172;22;20043;-86
2023/03/11 02:51:45;;;;;;;8.55;2.60;;;;;;;0.45;100.00;100698.63;6164322;22;20018;-86
2023/03/11 02:54:10;;;;;;;9.07;2.60;;;;;;;0.55;100.00;100702.75;6139388;22;20019;-86
2023/03/11 02:56:37;;;;;;;6.53;2.60;;;;;;;0.63;100.00;100711.31;6164270;22;20411;-85
2023/03/11 02:59:03;;;;;;;14.70;3.40;;;;;;;0.59;100.00;100707.03;6163507;22;20097;-86
2023/03/11 03:01:29;;;;;;;10.90;2.60;;;;;;;0.67;100.00;100705.09;6164180;22;20098;-86
2023/03/11 03:03:55;;;;;;;8.82;2.35;;;;;;;0.67;100.00;100707.72;6162849;22;20015;-86
2023/03/11 03:06:21;;;;;;;13.82;2.70;;;;;;;0.68;100.00;100706.81;6139630;22;20072;-86
2023/03/11 03:08:48;;;;;;;12.82;2.78;;;;;;;0.67;100.00;100696.38;6139872;22;20015;-86
2023/03/11 03:11:14;;;;;;;7.38;2.85;;;;;;;0.69;100.00;100702.44;6163279;22;20023;-86
2023/03/11 03:13:39;;;;;;;13.70;3.05;;;;;;;0.80;100.00;100707.41;6163649;22;20092;-86
2023/03/11 03:16:05;;;;;;;8.95;2.97;;;;;;;0.55;100.00;100704.53;6163705;22;20027;-86
2023/03/11 03:18:32;;;;;;;11.20;3.05;;;;;;;0.86;100.00;100705.50;6139195;22;20019;-86
2023/03/11 03:20:58;;;;;;;18.23;3.72;;;;;;;0.96;100.00;100707.00;6137803;22;20047;-85
2023/03/11 03:23:23;;;;;;;9.93;3.63;;;;;;;0.87;100.00;100706.38;6162951;22;20170;-86
2023/03/11 03:25:49;;;;;;;8.18;2.97;;;;;;;0.86;100.00;100702.88;6161807;22;20025;-86
2023/03/11 03:28:14;;;;;;;30.67;4.10;;;;;;;0.77;100.00;100710.97;6137568;22;20015;-86
2023/03/11 03:30:43;;;;;;;10.60;3.42;;;;;;;0.59;100.00;100714.06;6161899;22;20126;-86
2023/03/11 03:33:09;;;;;;;21.42;3.30;;;;;;;0.69;100.00;100716.41;6162291;22;20560;-87
2023/03/11 03:35:39;;;;;;;16.02;3.17;;;;;;;0.71;100.00;100716.38;6164493;22;20034;-85
2023/03/11 03:38:14;;;;;;;12.32;2.53;;;;;;;0.71;100.00;100717.25;6161576;22;20015;-86
2023/03/11 03:40:45;;;;;;;4.63;2.50;;;;;;;0.76;100.00;100718.00;6161515;22;20126;-86
2023/03/11 03:43:11;;;;;;;10.43;2.75;;;;;;;0.65;100.00;100720.03;6162541;22;20122;-86
2023/03/11 03:45:39;;;;;;;16.40;2.85;;;;;;;0.66;100.00;100727.00;6239859;22;20035;-85
2023/03/11 03:48:05;;;;;;;7.20;2.83;;;;;;;0.65;100.00;100730.53;6294958;22;20015;-86
2023/03/11 03:50:34;;;;;;;7.28;2.60;;;;;;;0.64;100.00;100736.66;6139681;22;20011;-86
2023/03/11 03:53:00;;;;;;;15.65;2.92;;;;;;;0.76;100.00;100740.75;6297657;22;20097;-86
2023/03/11 03:55:26;;;;;;;9.93;2.78;;;;;;;0.80;100.00;100738.91;6162742;22;20027;-86
2023/03/11 03:57:52;;;;;;;8.25;2.65;;;;;;;0.81;100.00;100741.50;6138302;22;20057;-85
2023/03/11 04:00:20;;;;;;;9.55;2.47;;;;;;;0.75;100.00;100752.13;6137484;22;20023;-86
2023/03/11 04:02:52;;;;;;;13.90;2.97;;;;;;;0.68;100.00;100750.56;6161017;22;20844;-86
2023/03/11 04:05:26;;;;;;;13.18;3.92;;;;;;;0.74;100.00;100756.53;6162280;22;20107;-86
2023/03/11 04:07:53;;;;;;;11.52;2.88;;;;;;;0.84;100.00;100765.03;6160595;22;20019;-86
2023/03/11 04:10:20;;;;;;;7.13;2.30;;;;;;;0.82;100.00;100763.34;6265470;22;20019;-85
2023/03/11 04:12:45;;;;;;;12.07;2.85;;;;;;;0.83;100.00;100757.19;6293919;22;20049;-85
2023/03/11 04:15:11;;;;;;;8.00;2.40;;;;;;;0.81;100.00;100759.88;6137873;22;20479;-86
2023/03/11 04:17:38;;;;;;;16.52;2.67;;;;;;;0.86;100.00;100767.63;6162416;22;20019;-86
2023/03/11 04:20:09;;;;;;;7.00;2.33;;;;;;;0.82;100.00;100761.59;6161766;22;20467;-86
2023/03/11 04:22:34;;;;;;;14.40;2.88;;;;;;;0.77;100.00;100759.06;6294202;22;20509;-86
2023/03/11 04:25:00;;;;;;;7.75;2.55;;;;;;;0.77;100.00;100763.47;6293106;22;20026;-86
2023/03/11 04:27:26;;;;;;;12.23;2.88;;;;;;;0.70;100.00;100772.38;6136955;22;20354;-86
2023/03/11 04:29:51;;;;;;;13.90;3.05;;;;;;;0.67;100.00;100770.69;6292572;22;20442;-86
2023/03/11 04:32:17;;;;;;;13.75;2.60;;;;;;;0.59;100.00;100774.41;6161005;22;20101;-86
2023/03/11 04:34:44;;;;;;;10.02;2.40;;;;;;;0.56;100.00;100767.47;6160569;22;20023;-86
2023/03/11 04:37:11;;;;;;;14.85;2.65;;;;;;;0.55;100.00;100780.59;6161989;22;20019;-86
2023/03/11 04:39:37;;;;;;;8.82;2.33;;;;;;;0.45;100.00;100779.94;6138208;22;20023;-86
2023/03/11 04:42:03;;;;;;;13.10;3.45;;;;;;;0.40;100.00;100782.72;6162794;22;20106;-86
2023/03/11 04:44:29;;;;;;;9.23;2.80;;;;;;;0.45;100.00;100774.69;6162585;22;20101;-86
2023/03/11 04:46:54;;;;;;;10.77;3.22;;;;;;;0.37;100.00;100785.38;6295018;22;20039;-86
2023/03/11 04:49:20;;;;;;;8.60;2.25;;;;;;;0.46;100.00;100786.94;6139647;22;20099;-86
2023/03/11 04:51:46;;;;;;;13.55;2.67;;;;;;;0.55;100.00;100789.34;6164214;22;20023;-86
2023/03/11 04:54:14;;;;;;;11.00;2.63;;;;;;;0.57;100.00;100781.44;6163868;22;20037;-86
2023/03/11 04:56:39;;;;;;;13.13;2.70;;;;;;;0.50;100.00;100799.06;6138665;22;20023;-86
2023/03/11 04:59:06;;;;;;;9.27;3.30;;;;;;;0.47;100.00;100796.53;6138240;22;20026;-86
2023/03/11 05:01:33;;;;;;;11.60;2.78;;;;;;;0.37;100.00;100803.75;6163984;22;20497;-87
2023/03/11 05:04:01;;;;;;;9.20;2.75;;;;;;;0.54;100.00;100803.34;6139175;22;20019;-85
2023/03/11 05:06:27;;;;;;;10.65;3.20;;;;;;;0.58;100.00;100812.88;6161596;22;20127;-85
2023/03/11 05:08:53;;;;;;;7.90;2.33;;;;;;;0.56;100.00;100816.47;6137602;22;20494;-86
2023/03/11 05:11:18;;;;;;;15.15;3.05;;;;;;;0.50;100.00;100815.69;6162474;22;20102;-86
2023/03/11 05:13:46;;;;;;;12.05;2.58;;;;;;;0.50;100.00;100812.19;6138627;22;20450;-86
2023/03/11 05:16:12;;;;;;;12.18;2.63;;;;;;;0.62;100.00;100825.03;6137712;22;20022;-87
2023/03/11 05:18:37;;;;;;;13.55;3.00;;;;;;;0.55;100.00;100825.19;6137817;22;20503;-85
2023/03/11 05:21:04;;;;;;;13.43;3.47;;;;;;;0.50;100.00;100831.44;6162268;22;20027;-85
2023/03/11 05:23:31;;;;;;;16.02;3.00;;;;;;;0.39;100.00;100820.28;6136912;22;20027;-86
2023/03/11 05:25:57;;;;;;;7.75;2.35;;;;;;;0.35;100.00;100817.78;6137696;22;20014;-86
2023/03/11 05:28:23;;;;;;;12.43;3.33;;;;;;;0.28;100.00;100824.06;6137053;22;20023;-86
2023/03/11 05:30:51;;;;;;;12.60;2.75;;;;;;;0.43;100.00;100823.72;6162549;22;20097;-86
2023/03/11 05:33:17;;;;;;;8.25;2.97;;;;;;;0.45;100.00;100828.06;6137279;22;20031;-87
2023/03/11 05:35:43;;;;;;;6.80;2.88;;;;;;;0.34;100.00;100829.16;6137788;22;20023;-86
2023/03/11 05:38:09;;;;;;;10.10;2.35;;;;;;;0.17;100.00;100838.25;6137816;22;20205;-86
2023/03/11 05:40:34;;;;;;;15.10;3.67;;;;;;;0.40;100.00;100834.28;6163420;22;20015;-86
2023/03/11 05:43:00;;;;;;;7.20;2.72;;;;;;;0.23;100.00;100838.13;6162524;22;20098;-87
2023/03/11 05:45:28;;;;;;;9.55;3.30;;;;;;;0.11;100.00;100837.53;6162675;22;20015;-86
2023/03/11 05:47:55;;;;;;;8.80;3.08;;;;;;;0.13;100.00;100833.09;6138337;22;20379;-86
2023/03/11 05:50:21;;;;;;;8.68;3.80;;;;;;;0.15;100.00;100833.94;6138269;22;20053;-87
2023/03/11 05:52:48;;;;;;;12.00;3.53;;;;;;;0.15;100.00;100845.31;6163949;22;20552;-86
2023/03/11 05:55:14;;;;;;;13.00;4.03;;;;;;;0.13;100.00;100840.97;6293047;22;20054;-86
2023/03/11 05:57:42;;;;;;;16.02;3.78;;;;;;;0.10;100.00;100848.88;6165939;22;20015;-86
2023/03/11 06:00:11;;;;;;;15.43;4.13;;;;;;;0.13;100.00;100847.06;6163945;22;20023;-86
2023/03/11 06:02:42;;;;;;;14.48;3.30;;;;;;;0.06;100.00;100858.59;6141053;22;20027;-86
2023/03/11 06:05:11;;;;;;;13.50;3.40;;;;;;;0.04;100.00;100862.13;6163287;22;20026;-86
2023/03/11 06:07:37;;;;;;;12.15;3.63;;;;;;;0.08;100.00;100864.66;6138721;22;20098;-86
2023/03/11 06:10:05;;;;;;;5.68;3.20;;;;;;;0.18;100.00;100862.72;6139563;22;20018;-86
2023/03/11 06:12:36;;;;;;;14.23;3.20;;;;;;;0.09;100.00;100869.00;6164636;22;20015;-87
2023/03/11 06:15:16;;;;;;;10.10;2.95;;;;;;;0.14;100.00;100874.16;6163661;22;20017;-87
2023/03/11 06:17:41;;;;;;;17.15;2.70;;;;;;;0.13;100.00;100875.06;6139712;22;20079;-88
2023/03/11 06:20:08;;;;;;;6.50;2.95;;;;;;;0.27;100.00;100872.16;6139967;22;20189;-87
2023/03/11 06:22:34;;;;;;;9.77;3.00;;;;;;;0.29;100.00;100878.22;6165014;22;20012;-86
2023/03/11 06:25:00;;;;;;;11.20;2.78;;;;;;;0.13;100.00;100873.28;6267054;22;20065;-87
2023/03/11 06:27:26;;;;;;;13.32;3.50;;;;;;;0.20;100.00;100882.78;6140253;22;20019;-88
2023/03/11 06:29:53;;;;;;;10.90;2.90;;;;;;;0.15;100.00;100884.63;6140565;22;20090;-86
2023/03/11 06:32:20;;;;;;;8.80;3.00;;;;;;;0.30;100.00;100879.94;6165418;22;20085;-87
2023/03/11 06:34:50;;;;;;;8.57;2.90;;;;;;;0.40;100.00;100898.09;6165966;22;20035;-87
2023/03/11 06:37:16;;;;;;;5.63;2.90;;;;;;;0.51;100.00;100890.00;6164505;22;20130;-86
2023/03/11 06:39:41;;;;;;;12.80;2.83;;;;;;;0.46;100.00;100900.59;6140436;22;20082;-86
2023/03/11 06:42:10;;;;;;;17.77;4.00;;;;;;;0.46;100.00;100907.59;6165557;22;20035;-88
2023/03/11 06:44:35;;;;;;;6.38;2.45;;;;;;;0.73;100.00;100899.13;6166321;22;20015;-90
2023/03/11 06:47:02;;;;;;;12.77;3.30;;;;;;;0.87;100.00;100906.69;6141139;22;20067;-86
2023/03/11 06:49:27;;;;;;;6.18;2.40;;;;;;;0.92;100.00;100907.47;6165467;22;20125;-84
2023/03/11 06:51:53;;;;;;;9.63;3.25;;;;;;;0.87;100.00;100906.69;6165244;22;20106;-85
2023/03/11 06:54:19;;;;;;;16.15;4.90;;;;;;;1.08;100.00;100907.13;6298447;22;20019;-84
2023/03/11 06:56:44;;;;;;;10.90;2.92;;;;;;;1.25;100.00;100905.78;6167177;22;20098;-86
2023/03/11 06:59:10;;;;;;;8.65;2.00;;;;;;;1.50;100.00;100911.31;6166489;22;20015;-85
2023/03/11 07:01:36;;;;;;;9.48;3.63;;;;;;;1.72;100.00;100916.91;6167172;22;20071;-85
2023/03/11 07:04:03;;;;;;;7.80;2.58;;;;;;;1.76;100.00;100917.69;6166697;22;20019;-85
2023/03/11 07:06:30;;;;;;;9.07;2.70;;;;;;;1.57;100.00;100930.44;6143275;22;20335;-85
2023/03/11 07:09:24;;;;;;;5.13;1.77;;;;;;;1.95;100.00;100918.06;6297029;22;20494;-86
2023/03/11 07:11:51;;;;;;;7.43;1.95;;;;;;;2.05;100.00;100922.16;6169148;22;20015;-85
2023/03/11 07:14:23;;;;;;;9.98;2.00;;;;;;;2.06;100.00;100929.19;6166952;22;20591;-86
2023/03/11 07:16:52;;;;;;;7.82;1.95;;;;;;;2.06;100.00;100934.44;6168580;22;20130;-85
2023/03/11 07:19:42;;;;;;;8.15;2.00;;;;;;;2.38;100.00;100935.31;6150289;22;20094;-86
2023/03/11 07:22:08;;;;;;;6.78;2.35;;;;;;;2.57;100.00;100941.78;6169850;22;20982;-85
2023/03/11 07:24:33;;;;;;;8.35;1.95;;;;;;;2.50;100.00;100940.22;6305870;22;20019;-86
2023/03/11 07:26:59;;;;;;;10.43;2.25;;;;;;;2.29;100.00;100939.91;6304260;22;20026;-85
2023/03/11 07:29:24;;;;;;;3.30;1.65;;;;;;;2.63;100.00;100944.22;6302950;22;20048;-85
2023/03/11 07:31:50;;;;;;;5.30;2.00;;;;;;;2.83;100.00;100951.53;6171611;22;20011;-87
2023/03/11 07:34:15;;;;;;;7.18;1.75;;;;;;;2.91;100.00;100946.03;6303304;22;20071;-87
2023/03/11 07:36:41;;;;;;;6.47;2.17;;;;;;;3.45;100.00;100959.25;6147857;22;20015;-86
2023/03/11 07:39:11;;;;;;;5.35;1.77;;;;;;;2.97;100.00;100953.78;6303927;22;20015;-87
2023/03/11 07:41:37;;;;;;;6.32;2.08;;;;;;;2.92;100.00;100964.44;6172542;22;20019;-87
2023/03/11 07:44:03;;;;;;;7.45;1.70;;;;;;;3.37;100.00;100971.84;6172256;22;20293;-86
2023/03/11 07:46:30;;;;;;;3.70;1.85;;;;;;;3.46;100.00;100968.03;6304562;22;20011;-85
2023/03/11 07:48:59;;;;;;;8.85;2.00;;;;;;;3.87;100.00;100972.84;6173185;22;20015;-86
2023/03/11 07:51:28;;;;;;;6.82;1.83;;;;;;;4.00;100.00;100968.00;6306239;22;20060;-86
2023/03/11 07:53:55;;;;;;;8.77;2.50;;;;;;;4.06;100.00;100970.41;6303574;22;20019;-85
2023/03/11 07:56:24;;;;;;;5.00;1.60;;;;;;;4.30;100.00;100968.69;6305983;22;20829;-87
2023/03/11 07:58:50;;;;;;;4.43;1.52;;;;;;;4.32;100.00;100971.31;6306602;22;20125;-87
2023/03/11 08:01:19;;;;;;;5.82;1.50;;;;;;;4.48;100.00;100975.13;6175179;22;20011;-86
2023/03/11 08:03:46;;;;;;;3.80;1.50;;;;;;;3.92;100.00;100979.72;6173715;22;20019;-87
2023/03/11 08:06:22;;;;;;;9.45;1.73;;;;;;;3.87;100.00;100982.53;6172898;22;20055;-86
2023/03/11 08:08:48;;;;;;;4.10;1.40;;;;;;;4.01;100.00;100982.91;6172600;22;20054;-87
2023/03/11 08:11:15;;;;;;;11.52;2.00;;;;;;;3.92;100.00;100980.59;6174496;22;20020;-87
2023/03/11 08:13:43;;;;;;;6.95;2.08;;;;;;;4.30;100.00;100983.69;6146327;22;20015;-85
2023/03/11 08:16:16;;;;;;;9.13;1.88;;;;;;;4.06;100.00;100986.25;6145089;22;20019;-85
2023/03/11 08:18:42;;;;;;;6.53;1.50;;;;;;;4.44;100.00;100991.97;6169528;22;20019;-86
2023/03/11 08:21:14;;;;;;;11.55;2.45;;;;;;;4.44;100.00;100991.97;6300707;22;20015;-85
2023/03/11 08:23:40;;;;;;;12.82;1.90;;;;;;;4.06;100.00;100996.78;6168585;22;20092;-85
2023/03/11 08:26:12;;;;;;;8.70;1.52;;;;;;;4.49;100.00;100991.81;6168528;22;20015;-85
2023/03/11 08:28:37;;;;;;;6.20;1.65;;;;;;;4.48;100.00;100995.38;6143474;22;20047;-84
2023/03/11 08:31:11;;;;;;;6.32;1.40;;;;;;;4.36;100.00;100994.00;6167482;22;20041;-85
2023/03/11 08:33:37;;;;;;;2.83;1.45;;;;;;;4.24;99.73;100995.31;6297982;22;20026;-86
2023/03/11 08:36:06;;;;;;;6.28;2.08;;;;;;;4.49;98.84;100983.88;6165693;22;20023;-86
2023/03/11 08:38:31;;;;;;;3.75;1.52;;;;;;;4.25;98.77;101001.44;6142075;22;20019;-85
2023/03/11 08:40:57;;;;;;;1.27;0.90;;;;;;;4.43;98.90;100986.75;6297727;22;20473;-85
2023/03/11 08:43:22;;;;;;;5.75;1.00;;;;;;;4.48;100.00;100993.59;6297799;22;20015;-85
2023/03/11 08:45:48;;;;;;;4.72;1.38;;;;;;;4.68;100.00;100993.72;6297444;22;20011;-85
2023/03/11 08:48:14;;;;;;;3.80;1.33;;;;;;;4.57;100.00;100995.06;6297115;22;20015;-85
2023/03/11 08:50:41;;;;;;;5.75;1.42;;;;;;;4.74;100.00;100997.94;6163836;22;20038;-85
2023/03/11 08:53:07;;;;;;;3.08;1.10;;;;;;;4.82;97.74;100993.22;6163540;22;20116;-85
2023/03/11 08:55:33;;;;;;;11.57;1.73;;;;;;;4.67;95.68;100989.38;6296039;22;20050;-85
2023/03/11 08:57:59;;;;;;;5.03;1.30;;;;;;;4.95;97.04;100996.25;6296767;22;20057;-84
2023/03/11 09:00:24;;;;;;;9.68;1.60;;;;;;;5.10;97.70;101000.09;6295203;22;20022;-85
2023/03/11 09:02:50;;;;;;;9.45;1.40;;;;;;;5.09;97.46;101003.69;6164391;22;20072;-84
2023/03/11 09:05:15;;;;;;;4.32;1.60;;;;;;;5.27;97.69;101005.63;6164234;22;20023;-88
2023/03/11 09:07:43;;;;;;;4.38;1.63;;;;;;;5.48;93.43;101013.63;6298912;22;20067;-88
2023/03/11 09:10:20;;;;;;;2.20;1.05;;;;;;;5.62;100.00;101019.22;6298248;22;20011;-88
2023/03/11 09:12:46;;;;;;;5.93;1.20;;;;;;;5.31;95.93;101014.28;6297991;22;20015;-88
2023/03/11 09:15:12;;;;;;;5.13;1.50;;;;;;;5.61;92.83;101021.00;6296614;22;20356;-88
2023/03/11 09:17:37;;;;;;;3.22;0.85;;;;;;;5.05;89.67;101016.13;6296719;22;20509;-87
2023/03/11 09:20:03;;;;;;;8.73;1.65;;;;;;;5.40;90.20;101012.13;6140355;22;20465;-87
2023/03/11 09:22:29;;;;;;;7.80;1.45;;;;;;;5.70;92.20;101019.78;6165002;22;20007;-88
2023/03/11 09:24:56;;;;;;;4.30;0.93;;;;;;;5.28;89.31;101025.84;6297001;22;20077;-68
2023/03/11 09:27:22;;;;;;;6.07;1.10;;;;;;;5.54;88.36;101027.47;6293327;22;20027;-69
2023/03/11 09:29:47;;;;;;;1.70;1.05;;;;;;;5.81;88.03;101037.84;6302634;22;20586;-68
2023/03/11 09:32:13;;;;;;;9.23;1.25;;;;;;;5.78;83.18;101022.97;6271548;22;20018;-67
2023/03/11 09:34:39;;;;;;;8.65;1.20;;;;;;;5.78;82.73;101030.94;6271155;22;20011;-69
2023/03/11 09:37:04;;;;;;;10.77;1.23;;;;;;;5.70;80.94;101033.00;6268848;22;20025;-66
2023/03/11 09:39:30;;;;;;;7.60;1.20;;;;;;;5.81;82.44;101040.50;6297569;22;20642;-66
2023/03/11 09:42:15;;;;;;;21.10;3.20;;;;;;;5.70;78.90;101041.78;6298511;22;20015;-67
2023/03/11 09:44:45;;;;;;;5.78;0.80;;;;;;;5.76;78.76;101055.72;6297020;22;20071;-67
2023/03/11 09:47:23;;;;;;;1.83;0.70;;;;;;;5.56;74.78;101044.13;6298283;22;20019;-68
2023/03/11 09:50:05;;;;;;;4.57;1.05;;;;;;;5.57;77.65;101055.56;6295424;22;20194;-66
2023/03/11 09:52:57;;;;;;;1.45;0.80;;;;;;;5.70;82.69;101055.03;6297911;22;20015;-68
2023/03/11 09:55:41;;;;;;;1.20;0.80;;;;;;;5.55;77.32;101053.00;6296065;22;20035;-68
2023/03/11 09:58:23;;;;;;;7.05;0.93;;;;;;;5.61;77.32;101058.03;6297719;22;20106;-67
2023/03/11 10:00:50;;;;;;;11.13;1.00;;;;;;;5.81;79.56;101059.88;6296154;22;20349;-67
2023/03/11 10:03:28;;;;;;;4.38;0.93;;;;;;;6.09;73.14;101048.22;6296721;22;20097;-70
2023/03/11 10:06:01;;;;;;;8.10;1.17;;;;;;;6.22;77.64;101045.00;6295265;22;20058;-67
2023/03/11 10:08:39;;;;;;;4.65;0.77;;;;;;;6.12;70.74;101053.38;6266570;22;20383;-69
2023/03/11 10:11:18;;;;;;;8.68;1.05;;;;;;;5.94;69.38;101045.28;6293784;22;20007;-68
2023/03/11 10:14:22;;;;;;;2.53;1.60;;;;;;;6.13;69.97;101042.75;6263519;22;20023;-69
2023/03/11 10:17:44;;;;;;;2.58;0.63;;;;;;;5.77;72.02;101044.19;6291501;22;20015;-67
2023/03/11 10:21:35;;;;;;;4.80;0.77;;;;;;;6.31;72.88;101046.38;6291928;22;20401;-69
2023/03/11 10:25:39;;;;;;;4.03;1.05;;;;;;;6.28;70.30;101043.03;6291901;22;20138;-68
2023/03/11 10:29:18;;;;;;;3.58;1.17;;;;;;;6.09;72.64;101054.38;6196012;23;20028;-66
2023/03/11 10:40:58;;;;;;;3.03;0.98;;;;;;;5.99;70.09;101055.69;6165919;23;20506;-68
2023/03/11 10:44:12;;;;;;;4.10;0.60;;;;;;;6.73;71.47;101048.97;6140771;23;20025;-68
2023/03/11 10:47:29;;;;;;;1.75;0.88;;;;;;;6.51;63.54;101042.03;6166481;23;20021;-68
2023/03/11 10:51:05;;;;;;;2.92;0.70;;;;;;;7.74;65.71;101040.78;6166722;23;20032;-69
2023/03/11 10:55:01;;;;;;;5.47;1.02;;;;;;;7.47;62.71;101046.47;6166168;23;20036;-67
2023/03/11 10:58:30;;;;;;;3.65;0.68;;;;;;;7.58;64.82;101047.75;6166324;23;20127;-70
2023/03/11 11:02:06;;;;;;;5.45;1.10;;;;;;;7.64;71.24;101052.78;6184667;23;20443;-68
2023/03/11 11:05:58;;;;;;;4.88;0.88;;;;;;;7.47;66.29;101045.59;6229662;23;20031;-66
2023/03/11 11:09:48;;;;;;;2.67;0.80;;;;;;;7.72;62.12;101045.28;6230442;23;20027;-68
2023/03/11 11:13:31;;;;;;;3.42;0.93;;;;;;;7.91;66.70;101048.78;6231917;23;20031;-69
2023/03/11 11:16:52;;;;;;;4.28;1.10;;;;;;;7.56;62.63;101049.63;6207830;23;20094;-69
2023/03/11 11:20:42;;;;;;;2.00;0.90;;;;;;;8.09;61.08;101038.19;6232887;23;20134;-69
2023/03/11 11:28:34;;;;;;;5.93;0.90;;;;;;;7.69;62.74;101048.13;6229656;23;20169;-66
2023/03/11 11:52:20;;;;;;;5.45;0.70;;;;;;;7.47;62.07;101049.13;6204887;23;20139;-65
2023/03/11 11:55:00;;;;;;;8.82;1.17;;;;;;;7.67;60.87;101049.97;6222572;23;20394;-67
2023/03/11 11:57:26;;;;;;;2.80;0.77;;;;;;;7.58;60.84;101053.94;6222503;23;20354;-66
2023/03/11 11:59:51;;;;;;;3.05;1.10;;;;;;;7.52;62.33;101055.06;6195499;23;20019;-66
2023/03/11 12:03:20;;;;;;;3.40;0.93;;;;;;;7.70;61.70;101045.38;6224107;23;20185;-68
2023/03/11 12:05:57;;;;;;;3.03;1.45;;;;;;;8.28;65.16;101041.63;6128838;23;20295;-67
2023/03/11 12:08:38;;;;;;;3.90;1.10;;;;;;;7.75;60.90;101043.34;6130569;23;20025;-66
2023/03/11 12:11:10;;;;;;;9.55;1.10;;;;;;;8.39;63.52;101039.34;6130578;23;20029;-66
2023/03/11 12:13:38;;;;;;;3.78;0.90;;;;;;;8.19;61.81;101052.75;6130211;23;20026;-67
2023/03/11 12:16:29;;;;;;;2.45;1.05;;;;;;;7.53;62.93;101059.47;6129791;23;20229;-66
2023/03/11 12:19:06;;;;;;;7.05;0.90;;;;;;;7.28;60.32;101061.53;6129853;23;20021;-67
2023/03/11 12:22:06;;;;;;;5.30;0.88;;;;;;;7.88;62.14;101064.00;6127934;23;20017;-67
2023/03/11 12:24:53;;;;;;;9.50;1.15;;;;;;;7.70;63.35;101061.31;6124915;23;20021;-67